Pagrindinis puslapis
METAR-TAF:

METAR-TAF

Oro uostai :

Sankt Peterburgas, Rusija

platuma: 59-58N, ilguma: 030-18E, Aukštis: 4 m

Dabartinis oras

Ataskaita buvo paskelbta 19 minutes, ne 06:00 UTC
Vėjas 10 kt iš Vakarų
Temperatūra 18°C
Drėgmė 77%
Slėgis 1018 hPa
Matomumas 10 km arba daugiau
nėra debesų žemiau 1500 m ir nėra kamuolinių lietaus debesų

METAR: ULLI 200600Z 27005MPS CAVOK 18/14 Q1018 R88/090060 NOSIG

Laikas: 09:19 (06:19 UTC)

Prognozė

Ataskaita buvo paskelbta 1 valandą ir 24 minutes, ne 04:55 UTC
Prognozė galioja nuo 20 metu 06 UTC su 21 metu 06 UTC
Vėjas 6 kt iš Vakarų
Matomumas: 6000 m
Išsisklaidę debesys ne aukštis 1500 ft
Laikinai
nuo 20 metu 12 UTC su 20 metu 18 UTC
Vėjas 6 kt iš Vakarų/Šiaurės Vakarų
Tapsmas
nuo 20 metu 18 UTC su 20 metu 20 UTC
Vėjas 6 kt iš Pietvakarių
Tapsmas
nuo 20 metu 20 UTC su 20 metu 21 UTC
Matomumas: 3100 m
Su prošvaistėmis ne aukštis 1100 ft
Sekli rūkas, rūkana

TAF: ULLI 200455Z 2006/2106 26003MPS 6000 SCT015 TEMPO 2012/2018 29003MPS BECMG 2018/2020 22003MPS BECMG 2020/2021 3100 MIFG BR BKN011

Orai ataskaitas ir orų prognozės (METAR, TAF).

turimą stotys yra geltonos ir raudonos taškus žemėlapyje.

Perkelti pele per norėdami pamatyti stoties vardą.

Tada spustelėkite, norėdami matyti oro stebėjimo ir prognozės.

Norėdami pakeisti žemėlapį: spustelėkite ant žalios mygtukų su juodo kryžiaus žemyn,; žalią mygtuką su brūkšneliu, jei norite nutolinti; arba žalių rodyklių gretimoms žemėlapius.


METAR-TAF: